Time;durP1;ratioP1;P1;durP2;ratioP2;P2;SDS_P1;SDS_P2;PMS_P1;PMS_P2;Temp;Humidity;BMP_temperature;BMP_pressure;BME280_temperature;BME280_humidity;BME280_pressure;Samples;Min_cycle;Max_cycle;Signal;HPM_P1;HPM_P2
2021/05/27 00:00:34;;;;;;;;;0.00;0.00;;;;;21.57;38.02;101659.94;5090258;27;45730;-58
2021/05/27 00:03:02;;;;;;;;;0.00;0.00;;;;;21.35;37.83;101624.13;5085643;27;46247;-58
2021/05/27 00:05:28;;;;;;;;;0.00;0.00;;;;;21.57;38.05;101659.94;5087205;27;45686;-58
2021/05/27 00:07:53;;;;;;;;;0.00;0.00;;;;;21.56;37.82;101660.91;5090086;27;45413;-59
2021/05/27 00:10:22;;;;;;;;;0.00;0.00;;;;;21.54;37.94;101662.78;5088759;27;45699;-58
2021/05/27 00:12:48;;;;;;;;;0.00;0.00;;;;;21.55;38.36;101663.66;5086894;27;47480;-58
2021/05/27 00:15:15;;;;;;;;;0.00;0.00;;;;;21.54;38.06;101660.13;5091924;27;45772;-58
2021/05/27 00:17:41;;;;;;;;;0.00;0.00;;;;;21.54;38.01;101654.81;5093671;27;45826;-58
2021/05/27 00:20:09;;;;;;;;;0.00;0.00;;;;;21.55;38.11;101658.31;5092104;27;46085;-58
2021/05/27 00:22:37;;;;;;;;;0.00;0.00;;;;;21.55;38.33;101661.84;5092738;27;47524;-58
2021/05/27 00:25:04;;;;;;;;;0.00;0.00;;;;;21.48;38.06;101648.09;5092405;27;45687;-58
2021/05/27 00:27:30;;;;;;;;;0.00;0.00;;;;;21.54;37.94;101668.09;5089467;27;47105;-58
2021/05/27 00:29:56;;;;;;;;;0.00;0.00;;;;;21.53;37.93;101666.41;5091638;27;45431;-58
2021/05/27 00:32:23;;;;;;;;;0.00;0.00;;;;;21.54;38.22;101667.25;5091398;27;53575;-58
2021/05/27 00:34:48;;;;;;;;;0.00;0.00;;;;;21.55;37.94;101667.16;5093225;27;45829;-58
2021/05/27 00:37:14;;;;;;;;;0.00;0.00;;;;;21.56;37.88;101662.69;5087702;27;45497;-58
2021/05/27 00:39:42;;;;;;;;;0.00;0.00;;;;;21.56;37.99;101670.66;5092871;27;45611;-58
2021/05/27 00:42:08;;;;;;;;;0.00;0.00;;;;;21.57;37.69;101667.03;5091174;27;45654;-58
2021/05/27 00:44:33;;;;;;;;;0.00;0.00;;;;;21.57;38.11;101664.38;5087932;27;45622;-58
2021/05/27 00:47:02;;;;;;;;;0.00;0.00;;;;;21.57;38.23;101678.53;5093229;27;46806;-58
2021/05/27 00:49:29;;;;;;;;;0.00;0.00;;;;;21.56;38.22;101674.19;5093167;27;45769;-57
2021/05/27 00:51:54;;;;;;;;;0.00;0.00;;;;;21.59;37.60;101675.78;5092515;27;45651;-59
2021/05/27 00:54:21;;;;;;;;;0.00;0.00;;;;;21.59;37.71;101684.59;5092457;27;45400;-58
2021/05/27 00:56:49;;;;;;;;;0.00;0.00;;;;;21.60;38.17;101677.50;5092977;27;45636;-58
2021/05/27 00:59:16;;;;;;;;;0.00;0.00;;;;;21.60;38.06;101680.16;5088324;27;46927;-58
2021/05/27 01:01:43;;;;;;;;;0.00;0.00;;;;;21.61;37.88;101681.84;5092422;27;46144;-58
2021/05/27 01:04:09;;;;;;;;;0.00;0.00;;;;;21.60;37.93;101677.50;5090265;27;45471;-58
2021/05/27 01:06:35;;;;;;;;;0.00;0.00;;;;;21.59;38.27;101676.63;5092225;27;45647;-58
2021/05/27 01:09:03;;;;;;;;;0.00;0.00;;;;;21.62;37.68;101691.53;5092228;27;45579;-58
2021/05/27 01:11:28;;;;;;;;;0.00;0.00;;;;;21.57;37.82;101683.84;5092116;27;46105;-58
2021/05/27 01:13:54;;;;;;;;;0.00;0.00;;;;;21.63;37.73;101691.44;5092479;27;45400;-59
2021/05/27 01:16:22;;;;;;;;;0.00;0.00;;;;;21.63;37.92;101691.44;5090951;27;46921;-58
2021/05/27 01:18:50;;;;;;;;;0.00;0.00;;;;;21.65;38.05;101696.66;5093164;27;45714;-58
2021/05/27 01:21:17;;;;;;;;;0.00;0.00;;;;;21.66;37.72;101694.84;5092274;27;47384;-57
2021/05/27 01:23:43;;;;;;;;;0.00;0.00;;;;;21.63;37.81;101690.59;5091416;27;45607;-58
2021/05/27 01:26:10;;;;;;;;;0.00;0.00;;;;;21.66;38.01;101695.69;5087802;27;45996;-58
2021/05/27 01:28:37;;;;;;;;;0.00;0.00;;;;;21.68;37.96;101698.25;5088510;27;45566;-58
2021/05/27 01:31:06;;;;;;;;;0.00;0.00;;;;;21.68;38.07;101691.16;5091313;27;46396;-58
2021/05/27 01:33:31;;;;;;;;;0.00;0.00;;;;;21.70;37.69;101691.88;5092514;27;45445;-58
2021/05/27 01:35:59;;;;;;;;;0.00;0.00;;;;;21.71;37.72;101695.44;5092168;27;45779;-59
2021/05/27 01:38:26;;;;;;;;;0.00;0.00;;;;;21.71;38.08;101696.28;5090766;27;46323;-58
2021/05/27 01:40:58;;;;;;;;;0.00;0.00;;;;;21.73;38.14;101698.84;5089928;27;46075;-58
2021/05/27 01:43:26;;;;;;;;;0.00;0.00;;;;;21.73;38.07;101696.19;5084017;27;45611;-58
2021/05/27 01:45:52;;;;;;;;;0.00;0.00;;;;;21.74;37.59;101696.09;5093159;27;45868;-58
2021/05/27 01:48:19;;;;;;;;;0.00;0.00;;;;;21.75;37.95;101697.78;5092166;27;45860;-58
2021/05/27 01:50:46;;;;;;;;;0.00;0.00;;;;;21.75;37.92;101695.13;5092631;27;46945;-58
2021/05/27 01:53:13;;;;;;;;;0.00;0.00;;;;;21.75;38.05;101695.13;5089960;27;45613;-58
2021/05/27 01:55:47;;;;;;;;;0.00;0.00;;;;;21.76;37.95;101711.94;5069798;27;45617;-58
2021/05/27 01:58:14;;;;;;;;;0.00;0.00;;;;;21.77;37.57;101705.69;5092632;27;45696;-58
2021/05/27 02:00:41;;;;;;;;;0.00;0.00;;;;;21.76;37.65;101701.31;5089703;27;45591;-58
2021/05/27 02:03:07;;;;;;;;;0.00;0.00;;;;;21.77;37.78;101711.00;5093310;27;45894;-58
2021/05/27 02:05:32;;;;;;;;;0.00;0.00;;;;;21.76;37.67;101711.94;5093623;27;45848;-58
2021/05/27 02:07:58;;;;;;;;;0.00;0.00;;;;;21.76;37.90;101704.81;5091692;27;46086;-59
2021/05/27 02:10:25;;;;;;;;;0.00;0.00;;;;;21.70;37.56;101696.34;5092034;27;47259;-58
2021/05/27 02:12:50;;;;;;;;;0.00;0.00;;;;;21.76;37.93;101699.50;5093863;27;45765;-58
2021/05/27 02:15:16;;;;;;;;;0.00;0.00;;;;;21.76;37.61;101704.81;5093496;27;46963;-58
2021/05/27 02:17:42;;;;;;;;;0.00;0.00;;;;;21.77;37.59;101705.69;5093133;27;45521;-58
2021/05/27 02:20:09;;;;;;;;;0.00;0.00;;;;;21.77;37.71;101698.53;5092272;27;46200;-58
2021/05/27 02:22:34;;;;;;;;;0.00;0.00;;;;;21.77;37.64;101700.34;5092987;27;46167;-58
2021/05/27 02:25:02;;;;;;;;;0.00;0.00;;;;;21.77;37.89;101703.84;5093428;27;45543;-58
2021/05/27 02:27:29;;;;;;;;;0.00;0.00;;;;;21.76;37.52;101710.13;5093111;27;45495;-58
2021/05/27 02:29:55;;;;;;;;;0.00;0.00;;;;;21.78;37.73;101710.03;5092146;27;45438;-59
2021/05/27 02:32:20;;;;;;;;;0.00;0.00;;;;;21.77;38.04;101711.81;5092517;27;45484;-58
2021/05/27 02:34:46;;;;;;;;;0.00;0.00;;;;;21.77;37.44;101706.50;5093125;27;45745;-58
2021/05/27 02:37:11;;;;;;;;;0.00;0.00;;;;;21.74;37.66;101703.19;5091938;27;45646;-58
2021/05/27 02:39:37;;;;;;;;;0.00;0.00;;;;;21.77;37.90;101714.50;5091137;27;45650;-58
2021/05/27 02:42:03;;;;;;;;;0.00;0.00;;;;;21.75;37.53;101710.22;5070122;27;45846;-58
2021/05/27 02:44:32;;;;;;;;;0.00;0.00;;;;;21.77;37.50;101717.16;5092219;27;45608;-57
2021/05/27 02:46:57;;;;;;;;;0.00;0.00;;;;;21.77;37.88;101713.66;5091483;27;45851;-58
2021/05/27 02:49:24;;;;;;;;;0.00;0.00;;;;;21.77;37.45;101714.50;5084823;27;46563;-58
2021/05/27 02:51:49;;;;;;;;;0.00;0.00;;;;;21.76;37.69;101710.13;5089188;27;45613;-58
2021/05/27 02:54:16;;;;;;;;;0.00;0.00;;;;;21.77;37.51;101714.50;5089381;27;45443;-58
2021/05/27 02:56:42;;;;;;;;;0.00;0.00;;;;;21.77;37.65;101714.50;5093205;27;45674;-58
2021/05/27 02:59:08;;;;;;;;;0.00;0.00;;;;;21.77;37.65;101711.81;5091744;27;47290;-58
2021/05/27 03:01:34;;;;;;;;;0.75;0.00;;;;;21.80;37.35;101715.25;5092353;27;45615;-58
2021/05/27 03:03:59;;;;;;;;;0.00;0.00;;;;;21.80;37.65;101718.75;5089375;27;45399;-58
2021/05/27 03:06:25;;;;;;;;;0.00;0.00;;;;;21.80;37.82;101713.44;5092514;27;45804;-58
2021/05/27 03:08:53;;;;;;;;;0.00;0.00;;;;;21.80;37.52;101710.78;5092395;27;45629;-61
2021/05/27 03:11:19;;;;;;;;;0.00;0.00;;;;;21.75;37.55;101699.59;5091666;27;45565;-58
2021/05/27 03:13:44;;;;;;;;;0.00;0.00;;;;;21.79;37.63;101710.91;5089053;27;45664;-58
2021/05/27 03:16:10;;;;;;;;;0.00;0.00;;;;;21.76;37.53;101709.28;5091689;27;45547;-58
2021/05/27 03:18:35;;;;;;;;;0.00;0.00;;;;;21.81;37.39;101715.16;5090612;27;48804;-58
2021/05/27 03:21:03;;;;;;;;;0.00;0.00;;;;;21.82;37.47;101718.66;5092230;27;45461;-57
2021/05/27 03:23:30;;;;;;;;;0.00;0.00;;;;;21.81;37.43;101711.63;5065079;27;45534;-58
2021/05/27 03:25:55;;;;;;;;;0.00;0.00;;;;;21.80;37.54;101713.44;5092257;27;45729;-59
2021/05/27 03:28:23;;;;;;;;;0.00;0.00;;;;;21.80;37.27;101715.25;5091104;27;45855;-58
2021/05/27 03:30:48;;;;;;;;;0.00;0.00;;;;;21.80;37.48;101715.25;5092817;27;45745;-58
2021/05/27 03:33:14;;;;;;;;;0.00;0.00;;;;;21.79;37.26;101716.22;5091212;27;45841;-58
2021/05/27 03:35:39;;;;;;;;;0.00;0.00;;;;;21.79;37.62;101724.19;5092308;27;45420;-58
2021/05/27 03:38:05;;;;;;;;;0.00;0.00;;;;;21.73;37.22;101706.81;5091106;27;45669;-58
2021/05/27 03:40:30;;;;;;;;;0.00;0.00;;;;;21.79;37.78;101711.72;5092100;27;45610;-58
2021/05/27 03:42:56;;;;;;;;;0.00;0.00;;;;;21.63;37.83;101685.28;5091364;27;46145;-58
2021/05/27 03:45:24;;;;;;;;;0.00;0.00;;;;;21.78;37.33;101707.38;5090468;27;45402;-57
2021/05/27 03:47:51;;;;;;;;;0.00;0.00;;;;;21.78;37.36;101712.69;5085081;27;47166;-58
2021/05/27 03:50:19;;;;;;;;;0.00;0.00;;;;;21.77;37.79;101705.69;5094537;27;45694;-58
2021/05/27 03:52:45;;;;;;;;;0.00;0.00;;;;;21.75;37.47;101702.25;5095254;27;45776;-58
2021/05/27 03:55:13;;;;;;;;;0.00;0.00;;;;;21.76;37.34;101715.44;5095149;27;45510;-58
2021/05/27 03:57:39;;;;;;;;;0.00;0.00;;;;;21.75;37.71;101716.41;5095245;27;45703;-58
2021/05/27 04:02:52;;;;;;;;;0.00;0.00;;;;;21.75;37.72;101716.41;5096140;27;45742;-58
2021/05/27 04:08:22;;;;;;;;;0.00;0.00;;;;;21.75;37.41;101721.72;4991865;28;45969;-58
2021/05/27 04:10:48;;;;;;;;;0.00;0.00;;;;;21.74;37.33;101728.00;4992032;28;45551;-58
2021/05/27 04:13:14;;;;;;;;;0.00;0.00;;;;;21.75;37.28;101724.38;5039528;27;45810;-58
2021/05/27 04:15:40;;;;;;;;;0.00;0.00;;;;;21.75;37.61;101729.69;5095251;27;45550;-58
2021/05/27 04:18:11;;;;;;;;;0.00;0.00;;;;;21.75;37.62;101727.03;5094013;27;45505;-58
2021/05/27 04:20:40;;;;;;;;;0.00;0.00;;;;;21.76;37.16;101735.88;5094717;27;45701;-58
2021/05/27 04:23:11;;;;;;;;;0.00;0.00;;;;;21.77;37.64;101725.13;5094769;27;45642;-58
2021/05/27 04:25:37;;;;;;;;;0.75;0.00;;;;;21.77;37.56;101733.09;5088691;27;45678;-58
2021/05/27 04:28:04;;;;;;;;;0.00;0.00;;;;;21.79;37.29;101738.31;5091210;27;45662;-57
2021/05/27 04:30:30;;;;;;;;;0.00;0.00;;;;;21.81;37.39;101738.22;5094225;27;45694;-57
2021/05/27 04:33:06;;;;;;;;;0.00;0.00;;;;;21.77;37.56;101734.94;5093195;27;46282;-58
2021/05/27 04:35:39;;;;;;;;;0.00;0.00;;;;;21.83;37.34;101737.19;5087209;27;45562;-58
2021/05/27 04:38:08;;;;;;;;;0.00;0.00;;;;;21.86;37.07;101746.75;5093081;27;46378;-58
2021/05/27 04:40:36;;;;;;;;;0.00;0.00;;;;;21.85;37.27;101743.25;5094483;27;45625;-57
2021/05/27 04:43:03;;;;;;;;;0.00;0.00;;;;;21.73;37.39;101723.63;5093243;27;45548;-57
2021/05/27 04:45:29;;;;;;;;;0.00;0.00;;;;;21.84;37.19;101748.69;5093447;27;45383;-57
2021/05/27 04:47:55;;;;;;;;;0.00;0.00;;;;;21.87;37.43;101752.00;5074373;27;46311;-59
2021/05/27 04:50:24;;;;;;;;;0.00;0.00;;;;;21.88;37.29;101760.81;5093262;27;45501;-57
2021/05/27 04:52:51;;;;;;;;;0.00;0.00;;;;;21.89;37.55;101762.53;5088568;27;45536;-57
2021/05/27 04:55:20;;;;;;;;;0.00;0.00;;;;;21.87;37.48;101762.63;5094432;27;45875;-57
2021/05/27 04:57:46;;;;;;;;;0.00;0.00;;;;;21.87;37.75;101761.75;5093907;27;47191;-57
2021/05/27 05:00:17;;;;;;;;;0.00;0.00;;;;;21.86;37.37;101755.59;5091014;27;45552;-57
2021/05/27 05:02:43;;;;;;;;;0.00;0.00;;;;;21.87;37.02;101759.09;5091881;27;45756;-57
2021/05/27 05:05:10;;;;;;;;;0.00;0.00;;;;;21.87;36.91;101754.66;5092810;27;46108;-57
2021/05/27 05:07:38;;;;;;;;;0.00;0.00;;;;;21.87;37.24;101757.31;5091020;27;47242;-59
2021/05/27 05:10:06;;;;;;;;;0.00;0.00;;;;;21.88;37.30;101758.16;5083830;27;45497;-57
2021/05/27 05:12:51;;;;;;;;;0.00;0.00;;;;;21.84;37.00;101751.34;5094549;27;45416;-59
2021/05/27 05:15:29;;;;;;;;;0.00;0.00;;;;;21.87;37.21;101753.78;5093798;27;46106;-57
2021/05/27 05:18:06;;;;;;;;;0.00;0.00;;;;;21.86;37.10;101758.28;5093771;27;46420;-60
2021/05/27 05:20:37;;;;;;;;;0.00;0.00;;;;;21.87;37.04;101764.41;5088894;27;45424;-58
2021/05/27 05:23:03;;;;;;;;;0.00;0.00;;;;;21.87;36.87;101761.75;5093575;27;45470;-59
2021/05/27 05:25:30;;;;;;;;;0.00;0.00;;;;;21.87;36.89;101764.41;5095104;27;45477;-57
2021/05/27 05:27:57;;;;;;;;;0.00;0.00;;;;;21.85;37.13;101767.19;5092812;27;46954;-60
2021/05/27 05:30:25;;;;;;;;;0.00;0.00;;;;;21.86;37.17;101762.72;5094365;27;46875;-59
2021/05/27 05:32:51;;;;;;;;;0.00;0.00;;;;;21.87;37.17;101773.25;5093960;27;45765;-60
2021/05/27 05:35:18;;;;;;;;;0.00;0.00;;;;;21.88;36.87;101774.09;5093749;27;45988;-59
2021/05/27 05:37:47;;;;;;;;;1.00;0.00;;;;;21.87;37.09;101775.94;5088964;27;46426;-59
2021/05/27 05:40:16;;;;;;;;;0.00;0.00;;;;;21.88;37.01;101776.75;5089607;27;45755;-59
2021/05/27 05:42:42;;;;;;;;;0.00;0.00;;;;;21.87;36.81;101778.59;5090613;27;45563;-59
2021/05/27 05:45:12;;;;;;;;;0.00;0.00;;;;;21.87;37.33;101777.72;5087517;27;46640;-59
2021/05/27 05:47:38;;;;;;;;;0.00;0.00;;;;;21.89;37.09;101786.47;5087053;27;47612;-59
2021/05/27 05:50:07;;;;;;;;;0.00;0.00;;;;;21.86;37.25;101784.00;5091430;27;45809;-59
2021/05/27 05:52:33;;;;;;;;;0.00;0.00;;;;;21.85;37.27;101782.28;5092235;27;45780;-59
2021/05/27 05:54:59;;;;;;;;;0.00;0.00;;;;;21.90;36.98;101790.84;5092635;27;45550;-59
2021/05/27 05:57:25;;;;;;;;;0.00;0.00;;;;;21.92;37.27;101796.06;5092328;27;46305;-59
2021/05/27 05:59:51;;;;;;;;;0.00;0.00;;;;;21.93;37.41;101803.06;5092816;27;45489;-59
2021/05/27 06:02:17;;;;;;;;;0.00;0.00;;;;;21.93;36.92;101805.75;5091606;27;45484;-59
2021/05/27 06:04:42;;;;;;;;;0.00;0.00;;;;;21.95;37.21;101799.38;5092031;27;45307;-59
2021/05/27 06:07:07;;;;;;;;;0.00;0.00;;;;;21.96;36.87;101797.53;5091525;27;46043;-59
2021/05/27 06:09:33;;;;;;;;;0.00;0.00;;;;;21.97;36.91;101799.28;5091854;27;45804;-59
2021/05/27 06:11:59;;;;;;;;;0.00;0.00;;;;;21.94;36.69;101797.66;5089458;27;47347;-61
2021/05/27 06:14:26;;;;;;;;;0.00;0.00;;;;;21.98;37.08;101803.63;5089136;27;47551;-59
2021/05/27 06:16:53;;;;;;;;;0.00;0.00;;;;;21.97;36.84;101800.09;5091299;27;47255;-59
2021/05/27 06:19:21;;;;;;;;;0.00;0.00;;;;;21.98;37.02;101803.63;5088352;27;45687;-58
2021/05/27 06:21:48;;;;;;;;;0.00;0.00;;;;;21.97;37.23;101808.09;5091276;27;45667;-59
2021/05/27 06:24:13;;;;;;;;;0.00;0.00;;;;;21.99;36.99;101806.19;5087925;27;45717;-59
2021/05/27 06:26:39;;;;;;;;;0.00;0.00;;;;;21.98;36.76;101812.44;5088059;27;46362;-59
2021/05/27 06:29:05;;;;;;;;;0.00;0.00;;;;;21.98;36.91;101811.63;5091255;27;45411;-59
2021/05/27 06:31:32;;;;;;;;;0.00;0.00;;;;;21.97;36.97;101805.44;5089443;27;45590;-58
2021/05/27 06:33:58;;;;;;;;;0.00;0.00;;;;;21.99;36.99;101805.34;5082284;27;45814;-60
2021/05/27 06:36:23;;;;;;;;;0.00;0.00;;;;;21.98;37.08;101809.78;5086808;27;46915;-59
2021/05/27 06:38:48;;;;;;;;;0.00;0.00;;;;;21.98;36.81;101807.13;5091353;27;45692;-59
2021/05/27 06:41:19;;;;;;;;;0.00;0.00;;;;;21.98;37.04;101812.44;5092155;27;45387;-59
2021/05/27 06:43:46;;;;;;;;;0.00;0.00;;;;;21.99;36.53;101815.97;5092262;27;45584;-59
2021/05/27 06:46:12;;;;;;;;;0.00;0.00;;;;;21.98;37.00;101816.94;5089923;27;46231;-59
2021/05/27 06:48:41;;;;;;;;;0.00;0.00;;;;;21.98;37.00;101807.13;5091984;27;45663;-58
2021/05/27 06:51:07;;;;;;;;;0.00;0.00;;;;;21.98;36.86;101814.28;5090365;27;45592;-59
2021/05/27 06:53:33;;;;;;;;;0.00;0.00;;;;;21.98;37.03;101817.78;5085127;27;45485;-57
2021/05/27 06:55:58;;;;;;;;;0.00;0.00;;;;;21.99;36.86;101815.97;5090561;27;46128;-60
2021/05/27 06:58:24;;;;;;;;;0.00;0.00;;;;;21.98;36.90;101807.13;5091700;27;45738;-59
2021/05/27 07:00:50;;;;;;;;;0.00;0.00;;;;;21.99;37.03;101818.63;5092092;27;47546;-59
2021/05/27 07:03:17;;;;;;;;;0.00;0.00;;;;;21.98;36.90;101815.09;5091280;27;45771;-59
2021/05/27 07:05:42;;;;;;;;;0.00;0.00;;;;;21.98;36.94;101822.25;5091293;27;46504;-59
2021/05/27 07:08:08;;;;;;;;;0.00;0.00;;;;;21.93;37.01;101816.38;5089856;27;45699;-63
2021/05/27 07:10:34;;;;;;;;;0.00;0.00;;;;;21.92;36.86;101817.34;5091024;27;45806;-63
2021/05/27 07:13:03;;;;;;;;;0.00;0.00;;;;;21.94;37.02;101823.41;5072057;27;45615;-63
2021/05/27 07:15:29;;;;;;;;;0.00;0.00;;;;;21.89;37.16;101827.19;5090523;27;47197;-63
2021/05/27 07:17:56;;;;;;;;;0.00;0.00;;;;;21.86;37.15;101818.56;5089407;27;45528;-64
2021/05/27 07:20:24;;;;;;;;;0.00;0.00;;;;;21.82;36.73;101831.22;5090019;27;45489;-63
2021/05/27 07:22:51;;;;;;;;;0.00;0.00;;;;;21.78;37.04;101827.03;5091645;27;45471;-63
2021/05/27 07:25:21;;;;;;;;;0.00;0.00;;;;;21.75;37.05;101827.22;5093775;27;46249;-63
2021/05/27 07:27:53;;;;;;;;;0.00;0.00;;;;;21.69;36.66;101815.16;5091362;27;45499;-63
2021/05/27 07:30:27;;;;;;;;;0.00;0.00;;;;;21.67;36.96;101813.53;5093338;27;45599;-63
2021/05/27 07:33:10;;;;;;;;;0.00;0.00;;;;;21.58;37.01;101807.00;5085886;27;45415;-63
2021/05/27 07:35:36;;;;;;;;;0.00;0.00;;;;;21.63;37.11;101821.69;5093682;27;46132;-63
2021/05/27 07:38:02;;;;;;;;;0.00;0.00;;;;;21.53;37.35;101809.94;5089026;27;45391;-63
2021/05/27 07:40:28;;;;;;;;;0.00;0.00;;;;;21.41;36.60;101794.75;5086711;27;45513;-62
2021/05/27 07:42:54;;;;;;;;;0.00;0.00;;;;;21.58;36.77;101823.78;5087421;27;45349;-61
2021/05/27 07:45:21;;;;;;;;;0.00;0.00;;;;;21.51;37.19;101820.66;5092395;27;46391;-63
2021/05/27 07:47:47;;;;;;;;;0.00;0.00;;;;;21.50;36.91;101824.25;5073360;27;45867;-63
2021/05/27 07:50:20;;;;;;;;;0.00;0.00;;;;;21.50;37.05;101831.41;5072325;27;45763;-63
2021/05/27 07:52:46;;;;;;;;;0.00;0.00;;;;;21.40;36.97;101823.13;5090119;27;45418;-63
2021/05/27 07:55:13;;;;;;;;;0.00;0.00;;;;;21.43;36.60;101838.91;5091384;27;46047;-62
2021/05/27 07:57:38;;;;;;;;;0.00;0.00;;;;;21.41;36.92;101824.00;5089471;27;45496;-62
2021/05/27 08:00:06;;;;;;;;;0.00;0.00;;;;;21.40;36.54;101833.75;5068763;27;45568;-62
2021/05/27 08:02:32;;;;;;;;;0.00;0.00;;;;;21.42;37.09;101833.66;5089033;27;45906;-62
2021/05/27 08:04:57;;;;;;;;;0.00;0.00;;;;;21.44;36.66;101835.28;5091976;27;46361;-62
2021/05/27 08:07:23;;;;;;;;;0.00;0.00;;;;;21.50;36.61;101832.25;5091744;27;45724;-60
2021/05/27 08:09:48;;;;;;;;;0.00;0.00;;;;;21.54;36.64;101826.75;5091953;27;46029;-62
2021/05/27 08:12:15;;;;;;;;;0.00;0.00;;;;;21.59;36.63;101838.78;5090745;27;46903;-63
2021/05/27 08:14:40;;;;;;;;;0.00;0.00;;;;;21.65;36.21;101834.91;5088777;27;47041;-60
2021/05/27 08:17:06;;;;;;;;;0.00;0.00;;;;;21.69;36.43;101841.75;5090604;27;45613;-60
2021/05/27 08:19:34;;;;;;;;;0.00;0.00;;;;;21.74;36.14;101837.00;5089654;27;45547;-60
2021/05/27 08:22:04;;;;;;;;;0.00;0.00;;;;;21.79;35.71;101839.38;5087564;27;45733;-60
2021/05/27 08:24:31;;;;;;;;;0.00;0.00;;;;;21.85;35.38;101836.31;5091986;27;45498;-62
2021/05/27 08:26:56;;;;;;;;;0.00;0.00;;;;;21.86;35.01;101842.50;5069733;27;46430;-60
2021/05/27 08:29:22;;;;;;;;;0.00;0.00;;;;;21.82;35.34;101840.97;5089136;27;45450;-59
2021/05/27 08:31:48;;;;;;;;;0.00;0.00;;;;;21.85;34.94;101835.47;5092278;27;45603;-57
2021/05/27 08:34:13;;;;;;;;;0.00;0.00;;;;;21.92;34.79;101844.75;5073259;27;46126;-54
2021/05/27 08:36:39;;;;;;;;;0.00;0.00;;;;;22.02;35.23;101843.22;5087917;27;45467;-56
2021/05/27 08:39:08;;;;;;;;;0.00;0.00;;;;;22.14;35.16;101846.91;5092889;27;45578;-57
2021/05/27 08:41:34;;;;;;;;;0.00;0.00;;;;;22.28;35.08;101851.31;5092183;27;45790;-56
2021/05/27 08:44:01;;;;;;;;;0.00;0.00;;;;;22.43;35.57;101840.63;5090858;27;46308;-57
2021/05/27 08:46:27;;;;;;;;;0.00;0.00;;;;;22.57;35.50;101839.75;5094159;27;45848;-57
2021/05/27 08:48:52;;;;;;;;;0.00;0.00;;;;;22.72;35.37;101839.69;5092062;27;45947;-58
2021/05/27 08:51:19;;;;;;;;;1.00;0.00;;;;;22.83;35.05;101837.97;5090156;27;45517;-58
2021/05/27 08:53:44;;;;;;;;;0.50;0.00;;;;;22.98;35.10;101834.41;5091794;27;47112;-57
2021/05/27 08:56:12;;;;;;;;;0.00;0.00;;;;;23.11;34.92;101842.41;5086077;27;45633;-59
2021/05/27 08:58:40;;;;;;;;;0.00;0.00;;;;;23.21;35.47;101840.81;5096549;27;45453;-57
2021/05/27 09:01:07;;;;;;;;;0.00;0.00;;;;;23.29;35.34;101838.44;5089305;27;45636;-57
2021/05/27 09:03:41;;;;;;;;;0.00;0.00;;;;;23.40;34.96;101845.72;5088076;27;45572;-57
2021/05/27 09:06:07;;;;;;;;;0.00;0.00;;;;;23.45;34.95;101848.94;5081296;27;45761;-57
2021/05/27 09:08:39;;;;;;;;;0.00;0.00;;;;;23.48;35.29;101838.03;5087228;27;45996;-57
2021/05/27 09:11:11;;;;;;;;;0.00;0.00;;;;;23.51;35.13;101836.97;5081270;27;45694;-56
2021/05/27 09:13:49;;;;;;;;;0.00;0.00;;;;;23.55;34.90;101832.28;5082013;27;46210;-58
2021/05/27 09:16:15;;;;;;;;;0.00;0.00;;;;;23.57;34.92;101839.19;5085342;27;45760;-55
2021/05/27 09:18:43;;;;;;;;;0.00;0.00;;;;;23.55;35.15;101841.13;5081675;27;46878;-61
2021/05/27 09:21:14;;;;;;;;;0.00;0.00;;;;;23.56;35.20;101841.97;5083613;27;45963;-59
2021/05/27 09:23:51;;;;;;;;;0.00;0.00;;;;;23.53;35.23;101843.06;5080458;27;47481;-59
2021/05/27 09:26:19;;;;;;;;;0.00;0.00;;;;;23.52;34.91;101841.34;5073649;27;45885;-57
2021/05/27 09:28:47;;;;;;;;;0.00;0.00;;;;;23.53;35.35;101839.53;5076445;27;46725;-58
2021/05/27 09:31:18;;;;;;;;;0.00;0.00;;;;;23.53;35.34;101847.53;5075626;27;45568;-58
2021/05/27 09:33:59;;;;;;;;;0.00;0.00;;;;;23.53;35.15;101847.53;5075042;27;47109;-59
2021/05/27 09:36:25;;;;;;;;;0.00;0.00;;;;;23.54;34.93;101862.56;5075493;27;45613;-59
2021/05/27 09:39:00;;;;;;;;;0.00;0.00;;;;;23.51;35.52;101847.63;5073411;27;45858;-59
2021/05/27 09:41:35;;;;;;;;;0.00;0.00;;;;;23.54;35.36;101857.22;5058899;27;45835;-58
2021/05/27 09:44:01;;;;;;;;;0.00;0.00;;;;;23.53;35.72;101853.72;5073832;27;47327;-58
2021/05/27 09:46:47;;;;;;;;;0.00;0.00;;;;;23.53;35.27;101855.53;5075342;27;46225;-59
2021/05/27 09:49:13;;;;;;;;;0.00;0.00;;;;;23.51;36.03;101852.13;5054759;27;45637;-60
2021/05/27 09:51:38;;;;;;;;;0.00;0.00;;;;;23.44;35.85;101844.56;5075127;27;45918;-60
2021/05/27 09:54:05;;;;;;;;;0.00;0.00;;;;;23.49;35.71;101854.88;5061769;27;47260;-58
2021/05/27 09:56:40;;;;;;;;;0.00;0.00;;;;;23.46;36.08;101858.63;5059106;27;45791;-60
2021/05/27 09:59:06;;;;;;;;;0.00;0.00;;;;;23.49;35.74;101857.56;5075201;27;45693;-59
2021/05/27 10:01:32;;;;;;;;;0.00;0.00;;;;;23.46;36.28;101849.75;5060789;27;45771;-58
2021/05/27 10:04:26;;;;;;;;;0.00;0.00;;;;;23.47;36.09;101855.00;5073597;27;46751;-60
2021/05/27 10:06:53;;;;;;;;;0.00;0.00;;;;;23.47;35.87;101851.50;5063957;27;45912;-58
2021/05/27 10:09:19;;;;;;;;;0.00;0.00;;;;;23.44;36.30;101860.56;5073431;27;45892;-58
2021/05/27 10:11:46;;;;;;;;;0.00;0.00;;;;;23.42;36.38;101846.47;5073842;27;46057;-57
2021/05/27 10:14:13;;;;;;;;;0.00;0.00;;;;;23.39;36.02;101860.03;5075749;27;45772;-56
2021/05/27 10:16:39;;;;;;;;;0.00;0.00;;;;;23.35;36.30;101862.03;5077019;27;46083;-56
2021/05/27 10:19:06;;;;;;;;;0.00;0.00;;;;;23.32;36.47;101862.25;5074284;27;47889;-56
2021/05/27 10:21:32;;;;;;;;;0.00;0.00;;;;;23.30;36.11;101866.78;5075555;27;45752;-57
2021/05/27 10:24:03;;;;;;;;;0.00;0.00;;;;;23.27;36.61;101858.16;5071017;27;46242;-59
2021/05/27 10:26:29;;;;;;;;;0.00;0.00;;;;;23.24;36.16;101856.56;5072252;27;46770;-57
2021/05/27 10:28:55;;;;;;;;;0.00;0.00;;;;;23.23;36.77;101862.84;5071169;27;45889;-55
2021/05/27 10:31:24;;;;;;;;;0.00;0.00;;;;;23.18;36.50;101857.00;5073898;27;47308;-57
2021/05/27 10:33:52;;;;;;;;;0.00;0.00;;;;;23.19;36.60;101861.34;5053510;27;45827;-56
2021/05/27 10:36:18;;;;;;;;;0.00;0.00;;;;;23.14;37.05;101853.69;5071564;27;45702;-56
2021/05/27 10:38:48;;;;;;;;;0.00;0.00;;;;;23.18;37.76;101860.53;5072769;27;45738;-57
2021/05/27 10:41:16;;;;;;;;;0.00;0.00;;;;;23.18;37.61;101857.84;5070045;27;45765;-57
2021/05/27 10:44:02;;;;;;;;;0.00;0.00;;;;;23.17;37.05;101858.78;5076314;27;46255;-57
2021/05/27 10:46:29;;;;;;;;;0.00;0.00;;;;;23.15;37.06;101860.72;5072233;27;45785;-57
2021/05/27 10:48:54;;;;;;;;;0.00;0.00;;;;;23.13;37.30;101865.31;5076342;27;45691;-56
2021/05/27 10:51:30;;;;;;;;;0.00;0.00;;;;;23.11;37.26;101866.38;5079779;27;45885;-56
2021/05/27 10:54:02;;;;;;;;;0.00;0.00;;;;;23.08;37.25;101862.94;5073091;27;46214;-58
2021/05/27 10:56:34;;;;;;;;;0.00;0.00;;;;;23.06;37.03;101856.03;5075809;27;46003;-57
2021/05/27 10:58:59;;;;;;;;;0.00;0.00;;;;;23.03;36.71;101859.75;5073722;27;45656;-57
2021/05/27 11:01:31;;;;;;;;;0.00;0.00;;;;;23.00;36.87;101857.31;5071419;27;45923;-57
2021/05/27 11:04:02;;;;;;;;;0.00;0.00;;;;;22.98;37.38;101859.22;5070216;27;46095;-57
2021/05/27 11:06:41;;;;;;;;;0.00;0.00;;;;;22.95;37.74;101849.63;5073825;27;45783;-58
2021/05/27 11:09:10;;;;;;;;;0.00;0.00;;;;;22.95;37.79;101856.78;5073903;27;45647;-59
2021/05/27 11:11:40;;;;;;;;;0.00;0.00;;;;;22.94;38.23;101855.91;5071274;27;46799;-59
2021/05/27 11:14:26;;;;;;;;;0.00;0.00;;;;;22.96;38.37;101858.47;5072135;27;45569;-59
2021/05/27 11:17:04;;;;;;;;;0.00;0.00;;;;;22.99;38.10;101852.91;5075219;27;45630;-59
2021/05/27 11:19:56;;;;;;;;;0.00;0.00;;;;;23.03;38.43;101856.25;5073288;27;45561;-57
2021/05/27 11:25:24;;;;;;;;;0.00;0.00;;;;;23.11;38.75;101855.72;5068826;27;45790;-57
2021/05/27 11:28:04;;;;;;;;;0.00;0.00;;;;;23.13;38.96;101862.66;5069010;27;45517;-57
2021/05/27 11:30:36;;;;;;;;;0.00;0.00;;;;;23.16;38.50;101857.09;5071061;27;45980;-58
2021/05/27 11:33:14;;;;;;;;;2.00;0.00;;;;;23.20;38.96;101850.59;5071731;27;45673;-57
2021/05/27 11:35:52;;;;;;;;;2.00;2.00;;;;;23.21;39.06;101844.31;5067891;27;46626;-57